sensor_id;sensor_type;location;lat;lon;timestamp;temperature;humidity
19385;DHT22;9828;54.122;17.974;2023-09-18T00:01:54;18.70;99.90
19385;DHT22;9828;54.122;17.974;2023-09-18T00:07:36;18.70;48.20
19385;DHT22;9828;54.122;17.974;2023-09-18T00:13:02;18.70;1.00
19385;DHT22;9828;54.122;17.974;2023-09-18T00:18:24;18.60;1.00
19385;DHT22;9828;54.122;17.974;2023-09-18T00:23:45;18.60;99.90
19385;DHT22;9828;54.122;17.974;2023-09-18T00:34:29;18.50;97.10
19385;DHT22;9828;54.122;17.974;2023-09-18T00:39:53;18.40;99.90
19385;DHT22;9828;54.122;17.974;2023-09-18T00:45:14;18.40;99.90
19385;DHT22;9828;54.122;17.974;2023-09-18T00:50:36;18.40;99.90
19385;DHT22;9828;54.122;17.974;2023-09-18T00:56:00;18.30;41.90
19385;DHT22;9828;54.122;17.974;2023-09-18T01:06:46;18.30;1.00
19385;DHT22;9828;54.122;17.974;2023-09-18T01:12:18;18.20;99.90
19385;DHT22;9828;54.122;17.974;2023-09-18T01:17:43;18.20;25.10
19385;DHT22;9828;54.122;17.974;2023-09-18T01:23:05;18.10;72.10
19385;DHT22;9828;54.122;17.974;2023-09-18T01:28:26;18.20;99.90
19385;DHT22;9828;54.122;17.974;2023-09-18T01:33:48;18.10;1.00
19385;DHT22;9828;54.122;17.974;2023-09-18T01:39:11;18.10;7.10
19385;DHT22;9828;54.122;17.974;2023-09-18T01:44:33;18.10;1.00
19385;DHT22;9828;54.122;17.974;2023-09-18T01:49:54;18.10;1.00
19385;DHT22;9828;54.122;17.974;2023-09-18T01:55:16;18.10;1.00
19385;DHT22;9828;54.122;17.974;2023-09-18T02:00:37;18.00;1.00
19385;DHT22;9828;54.122;17.974;2023-09-18T02:05:59;18.10;99.90
19385;DHT22;9828;54.122;17.974;2023-09-18T02:11:20;18.00;99.90
19385;DHT22;9828;54.122;17.974;2023-09-18T02:16:43;18.00;99.90
19385;DHT22;9828;54.122;17.974;2023-09-18T02:22:04;18.00;1.00
19385;DHT22;9828;54.122;17.974;2023-09-18T02:27:27;17.90;99.90
19385;DHT22;9828;54.122;17.974;2023-09-18T02:32:48;17.90;1.00
19385;DHT22;9828;54.122;17.974;2023-09-18T02:38:10;17.80;1.00
19385;DHT22;9828;54.122;17.974;2023-09-18T02:43:32;17.80;99.90
19385;DHT22;9828;54.122;17.974;2023-09-18T02:48:53;17.80;1.00
19385;DHT22;9828;54.122;17.974;2023-09-18T02:54:15;17.80;99.90
19385;DHT22;9828;54.122;17.974;2023-09-18T02:59:36;17.70;71.20
19385;DHT22;9828;54.122;17.974;2023-09-18T03:04:58;17.70;1.00
19385;DHT22;9828;54.122;17.974;2023-09-18T03:10:19;17.70;1.00
19385;DHT22;9828;54.122;17.974;2023-09-18T03:15:45;17.70;1.00
19385;DHT22;9828;54.122;17.974;2023-09-18T03:21:07;17.60;1.00
19385;DHT22;9828;54.122;17.974;2023-09-18T03:26:28;17.60;99.90
19385;DHT22;9828;54.122;17.974;2023-09-18T03:31:50;17.60;94.50
19385;DHT22;9828;54.122;17.974;2023-09-18T03:37:14;17.60;99.90
19385;DHT22;9828;54.122;17.974;2023-09-18T03:42:36;17.60;1.00
19385;DHT22;9828;54.122;17.974;2023-09-18T03:47:57;17.50;1.00
19385;DHT22;9828;54.122;17.974;2023-09-18T03:53:19;17.50;1.00
19385;DHT22;9828;54.122;17.974;2023-09-18T03:58:43;17.40;99.90
19385;DHT22;9828;54.122;17.974;2023-09-18T04:04:08;17.40;1.00
19385;DHT22;9828;54.122;17.974;2023-09-18T04:09:29;17.30;1.00
19385;DHT22;9828;54.122;17.974;2023-09-18T04:14:51;17.40;1.00
19385;DHT22;9828;54.122;17.974;2023-09-18T04:20:12;17.30;1.00
19385;DHT22;9828;54.122;17.974;2023-09-18T04:25:34;17.30;1.00
19385;DHT22;9828;54.122;17.974;2023-09-18T04:30:55;17.30;99.90
19385;DHT22;9828;54.122;17.974;2023-09-18T04:36:19;17.30;99.90
19385;DHT22;9828;54.122;17.974;2023-09-18T04:41:41;17.30;99.90
19385;DHT22;9828;54.122;17.974;2023-09-18T04:47:03;17.30;99.90
19385;DHT22;9828;54.122;17.974;2023-09-18T04:52:25;17.30;1.00
19385;DHT22;9828;54.122;17.974;2023-09-18T04:57:47;17.20;66.20
19385;DHT22;9828;54.122;17.974;2023-09-18T05:03:10;17.20;99.90
19385;DHT22;9828;54.122;17.974;2023-09-18T05:08:32;17.20;1.00
19385;DHT22;9828;54.122;17.974;2023-09-18T05:13:53;17.20;1.00
19385;DHT22;9828;54.122;17.974;2023-09-18T05:19:15;17.30;99.90
19385;DHT22;9828;54.122;17.974;2023-09-18T05:24:40;17.40;38.10
19385;DHT22;9828;54.122;17.974;2023-09-18T05:30:02;17.40;1.00
19385;DHT22;9828;54.122;17.974;2023-09-18T05:35:23;17.50;1.00
19385;DHT22;9828;54.122;17.974;2023-09-18T05:40:45;17.60;1.00
19385;DHT22;9828;54.122;17.974;2023-09-18T05:46:07;17.70;1.00
19385;DHT22;9828;54.122;17.974;2023-09-18T05:51:29;17.70;1.00
19385;DHT22;9828;54.122;17.974;2023-09-18T05:56:50;17.80;99.50
19385;DHT22;9828;54.122;17.974;2023-09-18T06:02:12;17.90;1.00
19385;DHT22;9828;54.122;17.974;2023-09-18T06:07:35;18.00;49.50
19385;DHT22;9828;54.122;17.974;2023-09-18T06:12:56;18.10;1.00
19385;DHT22;9828;54.122;17.974;2023-09-18T06:18:20;18.20;26.70
19385;DHT22;9828;54.122;17.974;2023-09-18T06:23:42;18.30;99.90
19385;DHT22;9828;54.122;17.974;2023-09-18T06:29:03;18.50;99.90
19385;DHT22;9828;54.122;17.974;2023-09-18T06:34:25;18.70;1.00
19385;DHT22;9828;54.122;17.974;2023-09-18T06:39:47;18.80;1.00
19385;DHT22;9828;54.122;17.974;2023-09-18T06:45:09;19.00;53.80
19385;DHT22;9828;54.122;17.974;2023-09-18T06:50:30;19.80;99.90
19385;DHT22;9828;54.122;17.974;2023-09-18T06:55:52;21.00;1.00
19385;DHT22;9828;54.122;17.974;2023-09-18T07:01:13;22.60;1.00
19385;DHT22;9828;54.122;17.974;2023-09-18T07:11:59;25.30;1.00
19385;DHT22;9828;54.122;17.974;2023-09-18T07:17:20;26.10;92.20
19385;DHT22;9828;54.122;17.974;2023-09-18T07:28:07;27.10;1.00
19385;DHT22;9828;54.122;17.974;2023-09-18T07:33:29;27.70;1.00
19385;DHT22;9828;54.122;17.974;2023-09-18T07:38:51;27.70;1.00
19385;DHT22;9828;54.122;17.974;2023-09-18T07:44:19;27.80;1.00
19385;DHT22;9828;54.122;17.974;2023-09-18T07:49:40;27.80;1.00
19385;DHT22;9828;54.122;17.974;2023-09-18T07:55:03;28.00;1.00
19385;DHT22;9828;54.122;17.974;2023-09-18T08:05:50;29.00;99.90
19385;DHT22;9828;54.122;17.974;2023-09-18T08:11:13;28.90;99.90
19385;DHT22;9828;54.122;17.974;2023-09-18T08:16:35;28.70;99.90
19385;DHT22;9828;54.122;17.974;2023-09-18T08:21:56;28.90;99.90
19385;DHT22;9828;54.122;17.974;2023-09-18T08:27:18;28.90;99.90
19385;DHT22;9828;54.122;17.974;2023-09-18T08:32:42;29.00;99.90
19385;DHT22;9828;54.122;17.974;2023-09-18T08:38:03;29.60;99.90
19385;DHT22;9828;54.122;17.974;2023-09-18T08:43:26;30.00;1.00
19385;DHT22;9828;54.122;17.974;2023-09-18T08:54:10;30.40;99.90
19385;DHT22;9828;54.122;17.974;2023-09-18T08:59:32;30.70;99.90
19385;DHT22;9828;54.122;17.974;2023-09-18T09:04:54;30.50;99.90
19385;DHT22;9828;54.122;17.974;2023-09-18T09:10:16;30.40;99.90
19385;DHT22;9828;54.122;17.974;2023-09-18T09:15:45;31.00;99.90
19385;DHT22;9828;54.122;17.974;2023-09-18T09:21:08;31.90;99.90
19385;DHT22;9828;54.122;17.974;2023-09-18T09:26:29;31.30;1.00
19385;DHT22;9828;54.122;17.974;2023-09-18T09:31:50;31.60;1.00
19385;DHT22;9828;54.122;17.974;2023-09-18T09:37:12;31.30;1.00
19385;DHT22;9828;54.122;17.974;2023-09-18T09:42:39;31.70;1.00
19385;DHT22;9828;54.122;17.974;2023-09-18T09:59:37;31.80;99.90
19385;DHT22;9828;54.122;17.974;2023-09-18T10:04:58;32.20;99.90
19385;DHT22;9828;54.122;17.974;2023-09-18T10:10:20;32.60;99.90
19385;DHT22;9828;54.122;17.974;2023-09-18T10:15:42;33.40;99.90
19385;DHT22;9828;54.122;17.974;2023-09-18T10:27:01;33.40;99.90
19385;DHT22;9828;54.122;17.974;2023-09-18T10:32:26;33.50;99.90
19385;DHT22;9828;54.122;17.974;2023-09-18T10:37:50;33.40;99.90
19385;DHT22;9828;54.122;17.974;2023-09-18T10:43:16;33.60;99.90
19385;DHT22;9828;54.122;17.974;2023-09-18T10:48:43;33.30;99.90
19385;DHT22;9828;54.122;17.974;2023-09-18T10:54:14;33.00;99.90
19385;DHT22;9828;54.122;17.974;2023-09-18T11:04:56;33.40;99.90
19385;DHT22;9828;54.122;17.974;2023-09-18T11:10:27;33.70;99.90
19385;DHT22;9828;54.122;17.974;2023-09-18T11:15:49;34.00;99.90
19385;DHT22;9828;54.122;17.974;2023-09-18T11:21:12;34.40;99.90
19385;DHT22;9828;54.122;17.974;2023-09-18T11:26:40;33.80;99.90
19385;DHT22;9828;54.122;17.974;2023-09-18T11:32:03;33.50;99.90
19385;DHT22;9828;54.122;17.974;2023-09-18T11:37:26;33.20;99.90
19385;DHT22;9828;54.122;17.974;2023-09-18T11:48:38;32.80;99.90
19385;DHT22;9828;54.122;17.974;2023-09-18T11:54:03;33.20;99.90
19385;DHT22;9828;54.122;17.974;2023-09-18T11:59:40;33.40;99.90
19385;DHT22;9828;54.122;17.974;2023-09-18T12:10:33;33.40;99.90
19385;DHT22;9828;54.122;17.974;2023-09-18T12:16:03;33.20;99.90
19385;DHT22;9828;54.122;17.974;2023-09-18T12:21:28;32.40;99.90
19385;DHT22;9828;54.122;17.974;2023-09-18T12:26:51;33.00;99.90
19385;DHT22;9828;54.122;17.974;2023-09-18T12:32:13;33.20;99.90
19385;DHT22;9828;54.122;17.974;2023-09-18T12:37:39;33.70;99.90
19385;DHT22;9828;54.122;17.974;2023-09-18T12:43:02;33.70;99.90
19385;DHT22;9828;54.122;17.974;2023-09-18T12:48:24;33.60;99.90
19385;DHT22;9828;54.122;17.974;2023-09-18T12:53:47;32.70;99.90
19385;DHT22;9828;54.122;17.974;2023-09-18T12:59:09;32.30;99.90
19385;DHT22;9828;54.122;17.974;2023-09-18T13:04:37;31.40;99.90
19385;DHT22;9828;54.122;17.974;2023-09-18T13:10:09;31.90;99.90
19385;DHT22;9828;54.122;17.974;2023-09-18T13:15:32;32.10;99.90
19385;DHT22;9828;54.122;17.974;2023-09-18T13:20:54;31.20;99.90
19385;DHT22;9828;54.122;17.974;2023-09-18T13:26:15;30.50;99.90
19385;DHT22;9828;54.122;17.974;2023-09-18T13:31:37;30.20;99.90
19385;DHT22;9828;54.122;17.974;2023-09-18T13:36:59;30.10;99.90
19385;DHT22;9828;54.122;17.974;2023-09-18T13:42:22;30.00;99.90
19385;DHT22;9828;54.122;17.974;2023-09-18T13:47:43;30.00;99.90
19385;DHT22;9828;54.122;17.974;2023-09-18T13:53:05;29.90;99.90
19385;DHT22;9828;54.122;17.974;2023-09-18T13:58:27;29.80;99.90
19385;DHT22;9828;54.122;17.974;2023-09-18T14:03:49;29.40;99.90
19385;DHT22;9828;54.122;17.974;2023-09-18T14:09:11;29.20;99.90
19385;DHT22;9828;54.122;17.974;2023-09-18T14:14:33;28.70;1.00
19385;DHT22;9828;54.122;17.974;2023-09-18T14:19:56;28.20;99.90
19385;DHT22;9828;54.122;17.974;2023-09-18T14:25:18;28.20;99.90
19385;DHT22;9828;54.122;17.974;2023-09-18T14:30:41;27.90;99.90
19385;DHT22;9828;54.122;17.974;2023-09-18T14:36:02;27.60;99.90
19385;DHT22;9828;54.122;17.974;2023-09-18T14:41:26;27.50;1.00
19385;DHT22;9828;54.122;17.974;2023-09-18T14:52:11;26.80;1.00
19385;DHT22;9828;54.122;17.974;2023-09-18T14:57:33;27.20;1.00
19385;DHT22;9828;54.122;17.974;2023-09-18T15:13:46;27.00;99.90
19385;DHT22;9828;54.122;17.974;2023-09-18T15:19:08;27.00;99.90
19385;DHT22;9828;54.122;17.974;2023-09-18T15:24:31;26.90;99.90
19385;DHT22;9828;54.122;17.974;2023-09-18T15:35:23;26.60;99.90
19385;DHT22;9828;54.122;17.974;2023-09-18T15:40:45;26.70;1.00
19385;DHT22;9828;54.122;17.974;2023-09-18T16:07:36;26.00;99.90
19385;DHT22;9828;54.122;17.974;2023-09-18T16:13:01;26.00;99.90
19385;DHT22;9828;54.122;17.974;2023-09-18T16:18:24;25.70;99.90
19385;DHT22;9828;54.122;17.974;2023-09-18T16:23:45;25.70;99.90
19385;DHT22;9828;54.122;17.974;2023-09-18T16:29:06;25.60;99.90
19385;DHT22;9828;54.122;17.974;2023-09-18T16:34:28;25.50;99.90
19385;DHT22;9828;54.122;17.974;2023-09-18T16:39:50;25.30;99.90
19385;DHT22;9828;54.122;17.974;2023-09-18T16:45:11;25.10;99.90
19385;DHT22;9828;54.122;17.974;2023-09-18T16:50:33;25.00;99.90
19385;DHT22;9828;54.122;17.974;2023-09-18T16:55:55;24.80;99.90
19385;DHT22;9828;54.122;17.974;2023-09-18T17:06:38;20.90;99.90
19385;DHT22;9828;54.122;17.974;2023-09-18T17:12:00;24.60;99.90
19385;DHT22;9828;54.122;17.974;2023-09-18T17:28:05;24.30;99.90
19385;DHT22;9828;54.122;17.974;2023-09-18T17:33:27;24.00;1.00
19385;DHT22;9828;54.122;17.974;2023-09-18T17:38:48;23.70;99.90
19385;DHT22;9828;54.122;17.974;2023-09-18T17:49:32;23.60;99.90
19385;DHT22;9828;54.122;17.974;2023-09-18T17:54:56;23.60;99.90
19385;DHT22;9828;54.122;17.974;2023-09-18T18:00:18;23.50;99.90
19385;DHT22;9828;54.122;17.974;2023-09-18T18:05:40;23.50;1.00
19385;DHT22;9828;54.122;17.974;2023-09-18T18:16:27;23.10;99.90
19385;DHT22;9828;54.122;17.974;2023-09-18T18:21:48;23.20;1.00
19385;DHT22;9828;54.122;17.974;2023-09-18T18:27:11;22.90;99.90
19385;DHT22;9828;54.122;17.974;2023-09-18T18:32:33;22.90;99.90
19385;DHT22;9828;54.122;17.974;2023-09-18T18:37:54;22.90;99.90
19385;DHT22;9828;54.122;17.974;2023-09-18T18:43:16;22.90;99.90
19385;DHT22;9828;54.122;17.974;2023-09-18T18:48:39;22.80;99.90
19385;DHT22;9828;54.122;17.974;2023-09-18T18:54:00;22.80;99.90
19385;DHT22;9828;54.122;17.974;2023-09-18T18:59:24;22.60;99.90
19385;DHT22;9828;54.122;17.974;2023-09-18T19:10:08;22.40;1.00
19385;DHT22;9828;54.122;17.974;2023-09-18T19:15:30;22.50;99.90
19385;DHT22;9828;54.122;17.974;2023-09-18T19:20:53;22.40;99.90
19385;DHT22;9828;54.122;17.974;2023-09-18T19:26:15;22.00;99.90
19385;DHT22;9828;54.122;17.974;2023-09-18T19:31:40;22.30;99.90
19385;DHT22;9828;54.122;17.974;2023-09-18T19:37:01;22.20;99.90
19385;DHT22;9828;54.122;17.974;2023-09-18T19:42:28;22.30;1.00
19385;DHT22;9828;54.122;17.974;2023-09-18T19:47:49;22.30;1.00
19385;DHT22;9828;54.122;17.974;2023-09-18T20:03:55;22.20;1.00
19385;DHT22;9828;54.122;17.974;2023-09-18T20:09:17;22.10;1.00
19385;DHT22;9828;54.122;17.974;2023-09-18T20:14:38;21.90;99.90
19385;DHT22;9828;54.122;17.974;2023-09-18T20:20:04;21.90;99.90
19385;DHT22;9828;54.122;17.974;2023-09-18T20:25:27;21.80;99.90
19385;DHT22;9828;54.122;17.974;2023-09-18T20:30:52;21.80;1.00
19385;DHT22;9828;54.122;17.974;2023-09-18T20:36:13;21.90;1.00
19385;DHT22;9828;54.122;17.974;2023-09-18T20:41:35;21.90;1.00
19385;DHT22;9828;54.122;17.974;2023-09-18T20:46:57;22.00;99.90
19385;DHT22;9828;54.122;17.974;2023-09-18T20:52:19;21.90;62.60
19385;DHT22;9828;54.122;17.974;2023-09-18T20:57:41;22.00;14.60
19385;DHT22;9828;54.122;17.974;2023-09-18T21:03:03;21.90;1.00
19385;DHT22;9828;54.122;17.974;2023-09-18T21:08:25;21.90;1.00
19385;DHT22;9828;54.122;17.974;2023-09-18T21:13:48;21.80;1.00
19385;DHT22;9828;54.122;17.974;2023-09-18T21:19:10;21.80;1.00
19385;DHT22;9828;54.122;17.974;2023-09-18T21:24:31;21.90;1.00
19385;DHT22;9828;54.122;17.974;2023-09-18T21:29:53;21.80;1.00
19385;DHT22;9828;54.122;17.974;2023-09-18T21:35:14;21.90;1.00
19385;DHT22;9828;54.122;17.974;2023-09-18T21:40:36;21.90;1.00
19385;DHT22;9828;54.122;17.974;2023-09-18T21:45:57;21.90;1.00
19385;DHT22;9828;54.122;17.974;2023-09-18T21:51:18;21.90;1.00
19385;DHT22;9828;54.122;17.974;2023-09-18T21:56:40;21.90;11.20
19385;DHT22;9828;54.122;17.974;2023-09-18T22:02:02;21.90;26.60
19385;DHT22;9828;54.122;17.974;2023-09-18T22:07:25;21.90;37.30
19385;DHT22;9828;54.122;17.974;2023-09-18T22:12:46;22.00;49.70
19385;DHT22;9828;54.122;17.974;2023-09-18T22:18:08;22.00;57.00
19385;DHT22;9828;54.122;17.974;2023-09-18T22:23:30;22.00;84.20
19385;DHT22;9828;54.122;17.974;2023-09-18T22:28:52;22.00;99.90
19385;DHT22;9828;54.122;17.974;2023-09-18T22:34:14;22.00;99.90
19385;DHT22;9828;54.122;17.974;2023-09-18T22:57:18;22.00;99.90
19385;DHT22;9828;54.122;17.974;2023-09-18T23:02:41;21.90;99.90
19385;DHT22;9828;54.122;17.974;2023-09-18T23:08:08;22.00;99.90
19385;DHT22;9828;54.122;17.974;2023-09-18T23:13:30;21.90;99.90
19385;DHT22;9828;54.122;17.974;2023-09-18T23:18:53;21.90;99.90
19385;DHT22;9828;54.122;17.974;2023-09-18T23:24:15;21.90;99.90
19385;DHT22;9828;54.122;17.974;2023-09-18T23:29:36;21.90;99.90
19385;DHT22;9828;54.122;17.974;2023-09-18T23:34:58;21.90;99.90
19385;DHT22;9828;54.122;17.974;2023-09-18T23:40:22;21.90;1.00
19385;DHT22;9828;54.122;17.974;2023-09-18T23:45:43;21.80;1.00
19385;DHT22;9828;54.122;17.974;2023-09-18T23:51:05;21.70;1.00
19385;DHT22;9828;54.122;17.974;2023-09-18T23:56:29;21.60;62.80
